createdAt,value
2019-04-07T00:01:04.626Z,6.80
2019-04-07T00:06:08.552Z,6.60
2019-04-07T00:11:12.920Z,6.50
2019-04-07T00:16:16.989Z,6.50
2019-04-07T00:21:20.815Z,6.40
2019-04-07T00:26:24.908Z,6.40
2019-04-07T00:31:28.935Z,6.30
2019-04-07T00:36:32.930Z,6.30
2019-04-07T00:41:37.548Z,6.20
2019-04-07T00:46:42.255Z,6.10
2019-04-07T00:51:46.418Z,6.00
2019-04-07T00:56:51.138Z,5.90
2019-04-07T01:01:54.593Z,5.90
2019-04-07T01:07:00.239Z,5.80
2019-04-07T01:12:04.984Z,5.70
2019-04-07T01:17:08.423Z,5.60
2019-04-07T01:22:13.183Z,5.50
2019-04-07T01:27:18.244Z,5.50
2019-04-07T01:32:22.474Z,5.40
2019-04-07T01:37:26.544Z,5.30
2019-04-07T01:42:36.738Z,5.30
2019-04-07T01:47:57.262Z,5.20
2019-04-07T01:53:09.161Z,5.30
2019-04-07T01:58:31.683Z,5.40
2019-04-07T02:03:54.935Z,5.30
2019-04-07T02:09:23.887Z,5.30
2019-04-07T02:14:41.043Z,5.30
2019-04-07T02:19:57.059Z,5.20
2019-04-07T02:25:30.099Z,5.10
2019-04-07T02:30:52.428Z,5.00
2019-04-07T02:36:29.167Z,4.80
2019-04-07T02:41:56.979Z,4.80
2019-04-07T02:47:15.929Z,4.70
2019-04-07T02:52:37.499Z,4.70
2019-04-07T02:57:48.779Z,4.60
2019-04-07T03:03:31.134Z,4.50
2019-04-07T03:08:59.890Z,4.30
2019-04-07T03:14:19.694Z,4.30
2019-04-07T03:19:52.271Z,4.30
2019-04-07T03:25:11.125Z,4.20
2019-04-07T03:30:27.477Z,4.20
2019-04-07T03:35:40.291Z,4.10
2019-04-07T03:40:51.633Z,4.00
2019-04-07T03:46:01.573Z,3.90
2019-04-07T03:51:24.352Z,3.80
2019-04-07T03:56:54.326Z,3.80
2019-04-07T04:02:19.779Z,3.70
2019-04-07T04:07:36.140Z,3.60
2019-04-07T04:12:46.862Z,3.50
2019-04-07T04:17:51.477Z,3.50
2019-04-07T04:22:54.742Z,3.50
2019-04-07T04:27:59.232Z,3.50
2019-04-07T04:33:02.446Z,3.50
2019-04-07T04:38:06.611Z,3.50
2019-04-07T04:43:10.997Z,3.40
2019-04-07T04:48:15.602Z,3.30
2019-04-07T04:53:19.676Z,3.30
2019-04-07T04:58:23.647Z,3.20
2019-04-07T05:03:27.723Z,3.10
2019-04-07T05:08:32.395Z,3.10
2019-04-07T05:13:36.558Z,3.10
2019-04-07T05:18:41.555Z,3.30
2019-04-07T05:23:46.021Z,3.50
2019-04-07T05:28:49.200Z,3.90
2019-04-07T05:33:53.636Z,4.40
2019-04-07T05:38:58.953Z,5.20
2019-04-07T05:44:03.521Z,6.20
2019-04-07T05:49:07.779Z,7.10
2019-04-07T05:54:12.484Z,7.90
2019-04-07T05:59:16.665Z,8.70
2019-04-07T06:04:21.553Z,9.40
2019-04-07T06:09:26.435Z,10.00
2019-04-07T06:14:30.746Z,10.60
2019-04-07T06:19:40.610Z,11.20
2019-04-07T06:24:40.829Z,11.80
2019-04-07T06:29:45.246Z,12.20
2019-04-07T06:34:50.630Z,12.80
2019-04-07T06:39:54.871Z,13.30
2019-04-07T06:45:00.380Z,13.80
2019-04-07T06:50:21.221Z,14.40
2019-04-07T06:55:56.159Z,15.10
2019-04-07T07:01:30.645Z,15.60
2019-04-07T07:07:00.548Z,15.80
2019-04-07T07:12:30.924Z,15.90
2019-04-07T07:17:51.051Z,16.50
2019-04-07T07:23:04.713Z,16.90
2019-04-07T07:28:11.510Z,17.10
2019-04-07T07:33:15.178Z,17.50
2019-04-07T07:38:19.291Z,17.70
2019-04-07T07:43:24.005Z,18.10
2019-04-07T07:48:28.260Z,18.50
2019-04-07T07:53:32.929Z,18.90
2019-04-07T07:58:37.073Z,19.00
2019-04-07T08:03:41.608Z,18.80
2019-04-07T08:08:47.563Z,18.90
2019-04-07T08:13:52.470Z,19.30
2019-04-07T08:18:59.370Z,19.80
2019-04-07T08:24:02.555Z,19.70
2019-04-07T08:29:07.739Z,20.10
2019-04-07T08:34:13.068Z,20.60
2019-04-07T08:39:22.682Z,20.60
2019-04-07T08:44:25.999Z,20.60
2019-04-07T08:49:32.089Z,20.80
2019-04-07T08:54:35.580Z,20.60
2019-04-07T08:59:41.888Z,20.80
2019-04-07T09:04:49.736Z,20.70
2019-04-07T09:09:50.311Z,21.20
2019-04-07T09:14:55.645Z,21.50
2019-04-07T09:20:24.512Z,21.70
2019-04-07T09:25:46.654Z,21.60
2019-04-07T09:31:05.139Z,21.50
2019-04-07T09:36:27.641Z,21.50
2019-04-07T09:41:43.137Z,21.40
2019-04-07T09:47:06.750Z,21.20
2019-04-07T09:52:36.062Z,21.40
2019-04-07T09:57:52.868Z,21.50
2019-04-07T10:03:11.455Z,21.70
2019-04-07T10:08:28.204Z,21.70
2019-04-07T10:13:57.817Z,21.70
2019-04-07T10:19:13.133Z,21.80
2019-04-07T10:24:39.386Z,21.70
2019-04-07T10:29:55.637Z,21.90
2019-04-07T10:35:17.945Z,22.00
2019-04-07T10:40:44.447Z,21.80
2019-04-07T10:46:13.583Z,21.80
2019-04-07T10:51:36.460Z,21.80
2019-04-07T10:56:47.952Z,21.90
2019-04-07T11:02:15.867Z,21.90
2019-04-07T11:07:47.177Z,22.10
2019-04-07T11:13:14.583Z,22.10
2019-04-07T11:18:41.318Z,22.10
2019-04-07T11:23:56.630Z,22.20
2019-04-07T11:29:13.323Z,22.00
2019-04-07T11:34:36.600Z,21.90
2019-04-07T11:39:59.027Z,21.90
2019-04-07T11:45:25.397Z,21.80
2019-04-07T11:50:50.655Z,21.70
2019-04-07T11:56:10.795Z,21.70
2019-04-07T12:01:31.680Z,21.70
2019-04-07T12:06:46.684Z,21.70
2019-04-07T12:12:03.620Z,21.50
2019-04-07T12:17:30.688Z,21.30
2019-04-07T12:23:09.282Z,21.20
2019-04-07T12:28:28.862Z,21.10
2019-04-07T12:33:45.174Z,20.70
2019-04-07T12:39:09.397Z,20.30
2019-04-07T12:44:21.797Z,20.10
2019-04-07T12:49:44.488Z,20.20
2019-04-07T12:55:03.019Z,20.10
2019-04-07T13:00:51.287Z,20.00
2019-04-07T13:05:59.070Z,20.10
2019-04-07T13:11:31.206Z,20.10
2019-04-07T13:17:00.954Z,20.10
2019-04-07T13:22:19.344Z,20.20
2019-04-07T13:27:45.631Z,20.30
2019-04-07T13:33:00.701Z,20.40
2019-04-07T13:38:23.954Z,20.40
2019-04-07T13:43:37.061Z,20.50
2019-04-07T13:49:01.649Z,20.70
2019-04-07T13:54:16.936Z,20.70
2019-04-07T13:59:44.058Z,20.80
2019-04-07T14:04:56.697Z,20.80
2019-04-07T14:10:10.342Z,20.90
2019-04-07T14:15:33.483Z,20.90
2019-04-07T14:20:49.681Z,20.90
2019-04-07T14:26:15.749Z,20.70
2019-04-07T14:31:53.948Z,20.30
2019-04-07T14:37:12.345Z,20.00
2019-04-07T14:42:38.569Z,19.60
2019-04-07T14:48:01.014Z,19.20
2019-04-07T14:53:22.544Z,19.10
2019-04-07T14:58:47.668Z,19.20
2019-04-07T15:03:50.086Z,19.00
2019-04-07T15:09:16.563Z,18.90
2019-04-07T15:14:21.290Z,18.80
2019-04-07T15:19:25.522Z,18.80
2019-04-07T15:24:29.557Z,18.80
2019-04-07T15:29:36.235Z,18.80
2019-04-07T15:34:42.239Z,18.90
2019-04-07T15:39:45.937Z,18.80
2019-04-07T15:44:50.871Z,18.80
2019-04-07T15:49:57.777Z,18.80
2019-04-07T15:55:02.029Z,18.80
2019-04-07T16:00:05.563Z,19.00
2019-04-07T16:05:10.471Z,19.00
2019-04-07T16:10:15.490Z,19.00
2019-04-07T16:15:19.687Z,18.80
2019-04-07T16:20:26.344Z,18.70
2019-04-07T16:25:30.288Z,18.50
2019-04-07T16:30:34.059Z,18.30
2019-04-07T16:35:39.837Z,18.20
2019-04-07T16:40:44.632Z,18.00
2019-04-07T16:45:48.561Z,17.80
2019-04-07T16:50:55.284Z,17.70
2019-04-07T16:55:59.140Z,17.50
2019-04-07T17:01:03.239Z,17.30
2019-04-07T17:06:07.431Z,17.20
2019-04-07T17:11:11.499Z,17.00
2019-04-07T17:16:20.103Z,16.80
2019-04-07T17:21:22.357Z,16.60
2019-04-07T17:26:27.495Z,16.50
2019-04-07T17:31:32.648Z,16.40
2019-04-07T17:36:39.243Z,16.30
2019-04-07T17:41:43.711Z,16.20
2019-04-07T17:47:18.406Z,16.20
2019-04-07T17:52:51.233Z,16.10
2019-04-07T17:58:17.306Z,16.00
2019-04-07T18:03:43.964Z,15.90
2019-04-07T18:09:07.574Z,15.90
2019-04-07T18:14:28.359Z,15.80
2019-04-07T18:19:50.509Z,15.70
2019-04-07T18:25:06.954Z,15.70
2019-04-07T18:30:39.666Z,15.50
2019-04-07T18:35:54.460Z,15.30
2019-04-07T18:41:17.237Z,15.10
2019-04-07T18:46:27.914Z,14.80
2019-04-07T18:51:47.154Z,14.40
2019-04-07T18:57:10.490Z,14.10
2019-04-07T19:02:28.853Z,13.70
2019-04-07T19:07:41.645Z,13.40
2019-04-07T19:13:09.700Z,13.10
2019-04-07T19:18:27.069Z,12.90
2019-04-07T19:23:38.798Z,12.80
2019-04-07T19:29:12.795Z,12.70
2019-04-07T19:34:42.893Z,12.70
2019-04-07T19:40:16.504Z,12.70
2019-04-07T19:45:39.205Z,12.70
2019-04-07T19:51:03.177Z,12.60
2019-04-07T19:56:25.654Z,12.50
2019-04-07T20:01:48.033Z,12.40
2019-04-07T20:07:10.068Z,12.40
2019-04-07T20:12:20.670Z,12.30
2019-04-07T20:17:56.766Z,12.20
2019-04-07T20:23:08.488Z,12.10
2019-04-07T20:28:20.410Z,12.00
2019-04-07T20:33:32.940Z,11.90
2019-04-07T20:38:42.532Z,11.70
2019-04-07T20:44:11.185Z,11.50
2019-04-07T20:49:50.417Z,11.30
2019-04-07T20:55:13.529Z,11.10
2019-04-07T21:00:56.065Z,10.90
2019-04-07T21:06:10.517Z,10.70
2019-04-07T21:11:24.443Z,10.50
2019-04-07T21:16:46.599Z,10.30
2019-04-07T21:22:06.769Z,10.10
2019-04-07T21:27:19.290Z,9.90
2019-04-07T21:32:42.334Z,9.80
2019-04-07T21:37:58.321Z,9.60
2019-04-07T21:43:40.337Z,9.50
2019-04-07T21:49:00.695Z,9.30
2019-04-07T21:54:22.705Z,9.20
2019-04-07T21:59:36.223Z,9.00
2019-04-07T22:05:00.795Z,8.90
2019-04-07T22:10:07.320Z,8.80
2019-04-07T22:15:14.052Z,8.70
2019-04-07T22:20:20.104Z,8.60
2019-04-07T22:25:36.220Z,8.60
2019-04-07T22:30:44.577Z,8.50
2019-04-07T22:35:49.090Z,8.40
2019-04-07T22:40:54.185Z,8.20
2019-04-07T22:46:07.745Z,8.10
2019-04-07T22:51:09.941Z,8.00
2019-04-07T22:56:10.757Z,8.00
2019-04-07T23:01:14.932Z,7.90
2019-04-07T23:06:19.065Z,7.80
2019-04-07T23:11:23.684Z,7.70
2019-04-07T23:16:28.004Z,7.60
2019-04-07T23:21:32.123Z,7.50
2019-04-07T23:26:36.453Z,7.50
2019-04-07T23:31:40.542Z,7.40
2019-04-07T23:36:45.709Z,7.40
2019-04-07T23:41:51.178Z,7.40
2019-04-07T23:46:55.391Z,7.50
2019-04-07T23:51:59.503Z,7.50
2019-04-07T23:57:03.946Z,7.30
